Time;durP1;ratioP1;P1;durP2;ratioP2;P2;SDS_P1;SDS_P2;PMS_P1;PMS_P2;Temp;Humidity;BMP_temperature;BMP_pressure;BME280_temperature;BME280_humidity;BME280_pressure;Samples;Min_cycle;Max_cycle;Signal;HPM_P1;HPM_P2
2023/01/06 00:02:24;;;;;;;1.90;1.50;;;9.60;99.90;;;8.67;100.00;97962.78;5032959;28;20834;-74
2023/01/06 00:04:51;;;;;;;3.17;1.60;;;9.60;99.90;;;8.70;100.00;97950.97;5033217;28;20411;-74
2023/01/06 00:07:17;;;;;;;2.92;1.80;;;9.60;99.90;;;8.61;100.00;97954.97;5033447;28;20418;-74
2023/01/06 00:09:43;;;;;;;4.10;1.60;;;9.60;99.90;;;8.49;100.00;97952.28;5033572;28;20477;-74
2023/01/06 00:12:09;;;;;;;2.40;1.40;;;9.50;99.90;;;8.46;100.00;97958.00;5032636;28;20779;-74
2023/01/06 00:14:35;;;;;;;1.98;1.70;;;9.40;99.90;;;8.42;100.00;97949.72;5033119;28;20446;-74
2023/01/06 00:17:00;;;;;;;2.47;1.70;;;9.40;99.90;;;8.41;100.00;97952.59;5033376;28;20464;-74
2023/01/06 00:19:27;;;;;;;3.35;1.60;;;9.40;99.90;;;8.39;100.00;97946.72;5033382;28;20454;-74
2023/01/06 00:21:54;;;;;;;2.60;1.67;;;9.40;99.90;;;8.39;100.00;97952.00;5032687;28;20399;-74
2023/01/06 00:24:20;;;;;;;2.53;1.73;;;9.40;99.90;;;8.41;100.00;97945.50;5032957;28;20438;-74
2023/01/06 00:26:45;;;;;;;2.63;1.50;;;9.40;99.90;;;8.43;100.00;97950.50;5033082;28;20446;-74
2023/01/06 00:29:11;;;;;;;4.15;1.70;;;9.40;99.90;;;8.43;100.00;97945.25;5033284;28;20507;-74
2023/01/06 00:31:37;;;;;;;2.88;1.65;;;9.40;99.90;;;8.43;100.00;97943.41;5032538;28;20476;-74
2023/01/06 00:34:03;;;;;;;3.30;1.80;;;9.40;99.90;;;8.38;100.00;97939.84;5032549;28;20411;-74
2023/01/06 00:36:29;;;;;;;3.20;1.70;;;9.40;99.90;;;8.51;100.00;97939.66;5032895;28;20456;-75
2023/01/06 00:38:56;;;;;;;2.50;1.52;;;9.40;99.90;;;8.35;100.00;97935.00;5015178;28;20495;-74
2023/01/06 00:44:07;;;;;;;3.00;1.60;;;9.30;99.90;;;8.18;100.00;97926.88;5032389;28;20530;-74
2023/01/06 00:46:34;;;;;;;2.15;1.67;;;9.20;99.90;;;8.15;100.00;97925.50;5032622;28;20411;-74
2023/01/06 00:49:01;;;;;;;3.92;1.60;;;9.20;99.90;;;8.08;100.00;97926.59;5033211;28;20410;-75
2023/01/06 00:51:27;;;;;;;2.75;1.75;;;9.10;99.90;;;8.01;100.00;97918.78;5032458;28;20421;-74
2023/01/06 00:53:53;;;;;;;2.38;1.60;;;9.00;99.90;;;7.98;100.00;97915.75;5032312;28;20406;-74
2023/01/06 00:56:21;;;;;;;2.08;1.55;;;9.00;99.90;;;7.94;100.00;97920.69;5032588;28;20460;-74
2023/01/06 00:58:47;;;;;;;2.63;1.92;;;9.00;99.90;;;7.92;100.00;97929.81;5032371;28;20399;-73
2023/01/06 01:01:13;;;;;;;2.60;1.73;;;8.90;99.90;;;7.86;100.00;97933.34;5032035;28;20399;-74
2023/01/06 01:03:39;;;;;;;6.53;1.80;;;8.80;99.90;;;7.79;100.00;97941.34;5032117;28;20411;-74
2023/01/06 01:06:07;;;;;;;5.75;1.88;;;8.80;99.90;;;7.74;100.00;97933.28;5032074;28;20411;-73
2023/01/06 01:08:34;;;;;;;6.28;1.90;;;8.80;99.90;;;7.70;100.00;97934.72;5032501;28;20450;-74
2023/01/06 01:11:03;;;;;;;4.53;2.00;;;8.70;99.90;;;7.67;100.00;97937.78;5032368;28;20885;-74
2023/01/06 01:13:30;;;;;;;3.90;2.00;;;8.70;99.90;;;7.68;100.00;97927.03;5031298;28;20411;-73
2023/01/06 01:15:56;;;;;;;2.65;1.83;;;8.70;99.90;;;7.72;100.00;97930.88;5032186;28;20460;-74
2023/01/06 01:18:22;;;;;;;3.05;1.80;;;8.70;99.90;;;7.68;100.00;97929.69;5032293;28;20866;-74
2023/01/06 01:20:48;;;;;;;7.80;2.38;;;8.70;99.90;;;7.65;100.00;97926.69;5032287;28;20526;-74
2023/01/06 01:23:14;;;;;;;2.08;1.85;;;8.60;99.90;;;7.63;100.00;97924.25;5031123;28;20445;-74
2023/01/06 01:25:40;;;;;;;5.87;2.67;;;8.70;99.90;;;7.61;100.00;97922.88;5032034;28;20411;-74
2023/01/06 01:28:06;;;;;;;4.60;1.97;;;8.60;99.90;;;7.64;100.00;97923.25;5031971;28;20414;-74
2023/01/06 01:30:33;;;;;;;3.97;2.13;;;8.60;99.90;;;7.60;100.00;97922.06;5031846;28;20423;-74
2023/01/06 01:32:59;;;;;;;4.60;2.00;;;8.60;99.90;;;7.58;100.00;97925.94;5031050;28;20406;-74
2023/01/06 01:35:25;;;;;;;2.88;1.90;;;8.60;99.90;;;7.63;100.00;97926.91;5031865;28;20402;-74
2023/01/06 01:37:51;;;;;;;3.42;1.98;;;8.60;99.90;;;7.62;100.00;97921.84;5031727;28;20435;-75
2023/01/06 01:40:17;;;;;;;3.27;1.90;;;8.60;99.90;;;7.60;100.00;97914.16;5031885;28;20486;-75
2023/01/06 01:42:43;;;;;;;6.95;2.28;;;8.60;99.90;;;7.62;100.00;97914.75;5030866;28;20407;-75
2023/01/06 01:45:21;;;;;;;4.57;2.13;;;8.60;99.90;;;7.68;100.00;97913.88;5031639;28;20410;-74
2023/01/06 01:47:52;;;;;;;2.63;1.83;;;8.70;99.90;;;7.72;100.00;97908.97;5031408;28;20415;-75
2023/01/06 01:50:28;;;;;;;5.00;1.92;;;8.70;99.90;;;7.70;100.00;97913.66;5030283;28;20785;-75
2023/01/06 01:53:00;;;;;;;4.20;1.95;;;8.70;99.90;;;7.74;100.00;97907.72;5030827;28;20461;-75
2023/01/06 01:55:28;;;;;;;5.97;2.00;;;8.70;99.90;;;7.77;100.00;97909.13;5031539;28;20399;-75
2023/01/06 01:57:59;;;;;;;3.92;2.10;;;8.80;99.90;;;7.77;100.00;97909.13;5031382;28;20395;-75
2023/01/06 02:00:25;;;;;;;5.78;2.30;;;8.80;99.90;;;7.83;100.00;97899.50;5031511;28;20430;-74
2023/01/06 02:02:53;;;;;;;4.35;2.00;;;8.80;99.90;;;7.85;100.00;97911.47;5012709;28;20407;-74
2023/01/06 02:05:23;;;;;;;3.13;2.00;;;8.80;99.90;;;7.90;100.00;97910.78;5031270;28;20407;-73
2023/01/06 02:07:49;;;;;;;2.63;1.90;;;8.90;99.90;;;7.98;100.00;97903.38;5031174;28;20960;-74
2023/01/06 02:10:19;;;;;;;2.42;1.80;;;8.90;99.90;;;7.95;100.00;97903.03;5030015;28;20407;-74
2023/01/06 02:12:49;;;;;;;4.10;2.28;;;8.90;99.90;;;7.94;100.00;97907.50;5030200;28;20469;-74
2023/01/06 02:15:18;;;;;;;4.05;1.90;;;8.90;99.90;;;7.94;100.00;97906.69;5031074;28;20738;-74
2023/01/06 02:18:18;;;;;;;4.30;1.98;;;8.90;99.90;;;8.00;100.00;97897.91;5030541;28;20482;-75
2023/01/06 02:20:58;;;;;;;3.90;1.90;;;9.00;99.90;;;7.99;100.00;97907.63;5031180;28;20399;-74
2023/01/06 02:24:01;;;;;;;3.33;2.00;;;9.00;99.90;;;7.98;100.00;97895.47;5030246;28;20469;-74
2023/01/06 02:27:26;;;;;;;2.97;1.98;;;9.00;99.90;;;7.94;100.00;97890.88;5029800;28;20438;-75
2023/01/06 02:30:51;;;;;;;2.60;1.80;;;8.90;99.90;;;8.03;100.00;97890.38;5005645;28;20526;-74
2023/01/06 02:33:26;;;;;;;3.70;1.70;;;9.00;99.90;;;8.03;100.00;97886.91;5029822;28;20799;-74
2023/01/06 02:36:28;;;;;;;3.33;1.90;;;9.00;99.90;;;8.04;100.00;97888.53;5030305;28;20402;-75
2023/01/06 02:39:13;;;;;;;4.15;1.75;;;9.10;99.90;;;8.08;100.00;97885.22;5030686;28;20449;-74
2023/01/06 02:41:45;;;;;;;2.90;1.60;;;9.10;99.90;;;8.11;100.00;97890.06;5030085;28;20873;-74
2023/01/06 02:44:23;;;;;;;4.20;1.92;;;9.10;99.90;;;8.08;100.00;97887.84;5030115;28;20407;-74
2023/01/06 02:47:10;;;;;;;1.80;1.70;;;9.10;99.90;;;8.11;100.00;97886.63;5030379;28;20473;-74
2023/01/06 02:49:47;;;;;;;3.17;1.90;;;9.10;99.90;;;8.04;100.00;97893.81;5030588;28;20902;-74
2023/01/06 02:52:24;;;;;;;2.20;1.90;;;9.00;99.90;;;8.08;100.00;97884.41;5029663;28;21269;-74
2023/01/06 02:54:57;;;;;;;3.50;1.92;;;9.10;99.90;;;8.06;100.00;97897.81;5030196;28;20482;-74
2023/01/06 02:57:31;;;;;;;3.92;2.10;;;9.00;99.90;;;8.04;100.00;97891.94;5030407;28;20398;-74
2023/01/06 03:00:08;;;;;;;4.45;2.00;;;9.00;99.90;;;8.14;100.00;97886.16;5030467;28;20451;-74
2023/01/06 03:02:40;;;;;;;2.70;1.90;;;9.10;99.90;;;8.12;100.00;97891.63;5029387;28;20750;-74
2023/01/06 03:05:12;;;;;;;3.60;1.92;;;9.10;99.90;;;8.10;100.00;97885.00;5030269;28;20407;-74
2023/01/06 03:07:39;;;;;;;2.22;1.80;;;9.10;99.90;;;8.13;100.00;97881.91;5030233;28;20422;-74
2023/01/06 03:10:08;;;;;;;3.47;2.03;;;9.10;99.90;;;8.07;100.00;97882.78;5030232;28;20407;-74
2023/01/06 03:12:41;;;;;;;2.22;1.75;;;9.10;99.90;;;8.14;100.00;97875.59;5045871;28;20763;-74
2023/01/06 03:15:09;;;;;;;6.00;1.80;;;9.10;99.90;;;8.08;100.00;97876.50;5049929;28;20444;-75
2023/01/06 03:17:35;;;;;;;2.00;1.73;;;9.10;99.90;;;8.13;100.00;97874.00;5049989;28;20397;-75
2023/01/06 03:20:01;;;;;;;2.00;1.80;;;9.10;99.90;;;8.08;100.00;97874.66;5050091;28;20535;-75
2023/01/06 03:22:29;;;;;;;3.17;2.00;;;9.10;99.90;;;8.01;100.00;97873.94;5049393;28;20405;-75
2023/01/06 03:24:55;;;;;;;2.65;1.70;;;9.00;99.90;;;7.93;100.00;97866.34;5031720;28;20895;-75
2023/01/06 03:27:24;;;;;;;2.83;1.98;;;8.90;99.90;;;7.87;100.00;97864.59;5049865;28;20401;-75
2023/01/06 03:29:50;;;;;;;3.58;1.90;;;8.90;99.90;;;7.77;100.00;97862.47;5049915;28;20444;-75
2023/01/06 03:32:23;;;;;;;8.43;2.40;;;8.80;99.90;;;7.72;100.00;97869.44;5049236;28;20453;-75
2023/01/06 03:35:18;;;;;;;2.08;1.85;;;8.70;99.90;;;7.63;100.00;97854.97;5049524;28;20393;-75
2023/01/06 03:37:55;;;;;;;2.50;1.70;;;8.60;99.90;;;7.59;100.00;97851.16;5049823;28;21002;-75
2023/01/06 03:40:31;;;;;;;6.70;2.10;;;8.60;99.90;;;7.53;100.00;97859.94;5049832;28;20421;-75
2023/01/06 03:43:14;;;;;;;2.17;1.85;;;8.60;99.90;;;7.46;100.00;97862.63;5048978;28;20449;-75
2023/01/06 03:46:05;;;;;;;2.50;2.00;;;8.50;99.90;;;7.39;100.00;97867.97;5031722;28;20459;-75
2023/01/06 03:48:43;;;;;;;3.92;2.03;;;8.40;99.90;;;7.32;100.00;97867.25;5049695;28;20393;-75
2023/01/06 03:51:22;;;;;;;2.65;1.80;;;8.30;99.90;;;7.29;100.00;97872.94;5049587;28;20952;-75
2023/01/06 03:53:57;;;;;;;4.57;2.00;;;8.30;99.90;;;7.24;100.00;97878.06;5049166;28;20881;-74
2023/01/06 03:56:28;;;;;;;3.08;2.05;;;8.30;99.90;;;7.19;100.00;97874.47;5049537;28;20832;-75
2023/01/06 03:58:58;;;;;;;5.93;2.40;;;8.20;99.90;;;7.22;100.00;97876.66;5049634;28;20925;-75
2023/01/06 04:01:25;;;;;;;4.05;2.17;;;8.20;99.90;;;7.19;100.00;97879.72;5049122;28;20398;-75
2023/01/06 04:03:52;;;;;;;3.42;2.38;;;8.20;99.90;;;7.18;100.00;97876.28;5049139;28;20484;-75
2023/01/06 04:06:19;;;;;;;3.63;2.08;;;8.20;99.90;;;7.23;100.00;97873.00;5049470;28;20472;-75
2023/01/06 04:08:45;;;;;;;4.13;2.20;;;8.30;99.90;;;7.16;100.00;97877.53;5049539;28;21196;-75
2023/01/06 04:12:37;;;;;;;3.45;2.20;;;8.20;99.90;;;7.18;100.00;97878.94;5049381;28;20412;-73
2023/01/06 04:13:58;;;;;;;4.10;2.50;;;8.20;99.90;;;7.19;100.00;97877.09;5048898;28;20420;-73
2023/01/06 04:16:25;;;;;;;4.45;2.10;;;8.20;99.90;;;7.16;100.00;97861.72;5031484;28;20418;-73
2023/01/06 04:18:51;;;;;;;3.17;2.13;;;8.20;99.90;;;7.17;100.00;97865.97;5049367;28;20398;-73
2023/01/06 04:21:17;;;;;;;4.80;2.30;;;8.20;99.90;;;7.11;100.00;97856.31;5048948;28;20905;-74
2023/01/06 04:23:42;;;;;;;6.13;2.77;;;8.10;99.90;;;7.09;100.00;97864.44;5048998;28;20424;-75
2023/01/06 04:26:08;;;;;;;3.38;2.40;;;8.10;99.90;;;6.99;100.00;97862.28;5049237;28;20717;-75
2023/01/06 04:28:35;;;;;;;3.47;2.22;;;8.00;99.90;;;6.90;100.00;97854.91;5049416;28;20413;-74
2023/01/06 04:31:01;;;;;;;5.80;2.80;;;7.90;99.90;;;6.85;100.00;97849.44;5049261;28;20436;-75
2023/01/06 04:33:28;;;;;;;4.30;2.50;;;7.90;99.90;;;6.84;100.00;97855.75;5048331;28;20894;-74
2023/01/06 04:35:54;;;;;;;3.40;2.60;;;7.90;99.90;;;6.90;100.00;97853.06;5049243;28;20409;-75
2023/01/06 04:38:20;;;;;;;8.00;2.55;;;7.90;99.90;;;6.90;100.00;97849.63;5031304;28;20468;-75
2023/01/06 04:40:46;;;;;;;4.00;2.47;;;8.00;99.90;;;6.91;100.00;97849.44;5050412;28;20401;-74
2023/01/06 04:43:15;;;;;;;5.15;2.70;;;8.00;99.90;;;6.92;100.00;97843.13;5034005;28;20413;-75
2023/01/06 04:45:43;;;;;;;5.63;2.00;;;8.00;99.90;;;6.92;100.00;97844.94;5052768;28;20427;-75
2023/01/06 04:48:10;;;;;;;5.75;2.35;;;8.00;99.90;;;6.99;100.00;97841.22;5084491;22;20438;-77
2023/01/06 04:50:36;;;;;;;3.75;2.22;;;8.00;99.90;;;7.10;100.00;97844.97;5072561;28;20864;-77
2023/01/06 04:53:02;;;;;;;3.50;2.38;;;8.10;99.90;;;7.17;100.00;97843.09;5071735;28;20407;-77
2023/01/06 04:55:29;;;;;;;4.50;2.50;;;8.20;99.90;;;7.21;100.00;97844.28;5072759;28;20800;-76
2023/01/06 04:57:54;;;;;;;3.53;2.30;;;8.20;99.90;;;7.28;100.00;97846.84;5072548;28;20471;-77
2023/01/06 05:00:21;;;;;;;3.10;2.20;;;8.20;99.90;;;7.30;100.00;97842.94;5072567;28;21020;-76
2023/01/06 05:02:48;;;;;;;4.60;2.50;;;8.30;99.90;;;7.33;100.00;97845.16;5071720;28;20500;-77
2023/01/06 05:05:15;;;;;;;2.00;1.80;;;8.30;99.90;;;7.38;100.00;97842.66;5072226;28;20419;-77
2023/01/06 05:07:41;;;;;;;2.67;2.00;;;8.40;99.90;;;7.40;100.00;97842.44;5072368;28;20804;-77
2023/01/06 05:10:08;;;;;;;3.63;2.25;;;8.40;99.90;;;7.38;100.00;97844.50;5072503;28;20437;-77
2023/01/06 05:12:35;;;;;;;6.35;2.08;;;8.40;99.90;;;7.40;100.00;97842.44;5071651;28;20450;-77
2023/01/06 05:15:01;;;;;;;4.20;2.03;;;8.40;99.90;;;7.42;100.00;97831.69;5072133;28;20457;-77
2023/01/06 05:17:27;;;;;;;5.30;2.00;;;8.40;99.90;;;7.43;100.00;97822.78;5072153;28;20404;-77
2023/01/06 05:19:54;;;;;;;2.92;2.30;;;8.40;99.90;;;7.41;100.00;97828.25;5072241;28;20479;-77
2023/01/06 05:22:20;;;;;;;4.82;2.83;;;8.40;99.90;;;7.49;100.00;97837.69;5071596;28;20463;-77
2023/01/06 05:24:46;;;;;;;4.15;2.30;;;8.50;99.90;;;7.44;100.00;97840.19;5071828;28;20411;-77
2023/01/06 05:27:12;;;;;;;5.70;2.70;;;8.40;99.90;;;7.45;100.00;97832.06;5072018;28;20416;-77
2023/01/06 05:29:38;;;;;;;3.80;2.42;;;8.40;99.90;;;7.54;100.00;97835.19;5072041;28;20396;-77
2023/01/06 05:32:05;;;;;;;4.95;2.53;;;8.50;99.90;;;7.62;100.00;97835.72;5071292;28;20413;-77
2023/01/06 05:34:31;;;;;;;4.10;2.40;;;8.60;99.90;;;7.63;100.00;97825.97;5071496;28;20901;-77
2023/01/06 05:36:58;;;;;;;2.53;2.10;;;8.60;99.90;;;7.65;100.00;97831.84;5071854;28;20402;-77
2023/01/06 05:39:24;;;;;;;2.75;2.15;;;8.60;99.90;;;7.68;100.00;97828.75;5071870;28;20395;-77
2023/01/06 05:41:50;;;;;;;5.90;2.63;;;8.70;99.90;;;7.73;100.00;97831.53;5071154;28;20438;-77
2023/01/06 05:44:16;;;;;;;5.30;2.38;;;8.70;99.90;;;7.74;100.00;97827.88;5071271;28;20970;-77
2023/01/06 05:46:42;;;;;;;3.05;2.42;;;8.70;99.90;;;7.71;100.00;97834.38;5071558;28;20418;-77
2023/01/06 05:49:08;;;;;;;3.00;2.50;;;8.70;99.90;;;7.70;100.00;97832.78;5071807;28;20399;-77
2023/01/06 05:51:34;;;;;;;5.07;2.80;;;8.70;99.90;;;7.68;100.00;97839.28;5070311;28;20418;-77
2023/01/06 05:54:05;;;;;;;3.70;2.45;;;8.70;99.90;;;7.64;100.00;97835.50;5070774;28;20403;-77
2023/01/06 05:56:31;;;;;;;4.53;2.65;;;8.60;99.90;;;7.59;100.00;97835.34;5071494;28;20433;-77
2023/01/06 05:58:57;;;;;;;4.90;2.40;;;8.60;99.90;;;7.60;100.00;97829.03;5071470;28;20441;-76
2023/01/06 06:01:27;;;;;;;3.78;2.50;;;8.60;99.90;;;7.56;100.00;97828.69;5071016;28;20416;-77
2023/01/06 06:03:54;;;;;;;3.87;2.67;;;8.50;99.90;;;7.55;100.00;97828.91;5071055;28;20915;-77
2023/01/06 06:06:22;;;;;;;4.15;2.70;;;8.50;99.90;;;7.57;100.00;97825.03;5071343;28;20406;-77
2023/01/06 06:08:48;;;;;;;4.40;2.60;;;8.60;99.90;;;7.54;100.00;97822.03;5071263;28;20406;-77
2023/01/06 06:11:18;;;;;;;3.40;2.40;;;8.50;99.90;;;7.62;100.00;97832.25;5070678;28;20820;-77
2023/01/06 06:13:45;;;;;;;5.40;2.40;;;8.60;99.90;;;7.63;100.00;97834.69;5070796;28;20406;-77
2023/01/06 06:16:13;;;;;;;4.10;2.43;;;8.60;99.90;;;7.77;100.00;97838.75;5071011;28;20427;-77
2023/01/06 06:18:43;;;;;;;3.53;2.40;;;8.70;99.90;;;7.76;100.00;97836.34;5071137;28;20765;-77
2023/01/06 06:21:11;;;;;;;3.30;2.60;;;8.70;99.90;;;7.72;100.00;97833.38;5070979;28;20453;-77
2023/01/06 06:23:37;;;;;;;3.60;2.30;;;8.70;99.90;;;7.78;100.00;97827.19;5070093;28;20447;-77
2023/01/06 06:26:03;;;;;;;4.30;2.90;;;8.80;99.90;;;7.73;100.00;97836.81;5070900;28;20406;-77
2023/01/06 06:28:31;;;;;;;4.15;2.42;;;8.70;99.90;;;7.76;100.00;97844.25;5069669;28;20408;-77
2023/01/06 06:31:04;;;;;;;2.80;2.50;;;8.70;99.90;;;7.88;100.00;97845.13;5070679;28;20522;-77
2023/01/06 06:33:30;;;;;;;3.15;2.40;;;8.80;99.90;;;7.85;100.00;97845.56;5069834;28;20497;-77
2023/01/06 06:35:56;;;;;;;4.88;2.30;;;8.80;99.90;;;7.88;100.00;97842.50;5070642;28;20806;-77
2023/01/06 06:38:22;;;;;;;2.65;2.05;;;8.90;99.90;;;8.02;100.00;97846.56;5070728;28;20517;-77
2023/01/06 06:40:48;;;;;;;3.63;2.20;;;8.90;99.90;;;7.90;100.00;97837.78;5070643;28;20839;-77
2023/01/06 06:43:14;;;;;;;2.70;2.27;;;8.90;99.90;;;7.87;100.00;97838.25;5069584;28;20404;-77
2023/01/06 06:45:43;;;;;;;5.32;2.53;;;8.80;99.90;;;7.85;100.00;97834.22;5052600;28;20465;-77
2023/01/06 06:48:09;;;;;;;4.20;2.20;;;8.80;99.90;;;7.86;100.00;97826.09;5068892;28;20916;-77
2023/01/06 06:50:35;;;;;;;4.30;2.38;;;8.80;99.90;;;7.87;100.00;97832.97;5070317;28;20856;-77
2023/01/06 06:53:01;;;;;;;3.50;2.20;;;8.90;99.90;;;7.89;100.00;97841.47;5069497;28;20410;-77
2023/01/06 06:55:27;;;;;;;2.13;1.90;;;8.90;99.90;;;7.97;100.00;97856.97;5070399;28;20467;-77
2023/01/06 06:57:53;;;;;;;3.23;2.30;;;8.90;99.90;;;7.98;100.00;97853.28;5070132;28;21045;-77
2023/01/06 07:00:18;;;;;;;2.83;2.35;;;8.90;99.90;;;8.06;100.00;97854.81;5070356;28;20399;-76
2023/01/06 07:02:48;;;;;;;2.63;2.13;;;9.00;99.90;;;8.02;100.00;97851.03;5069308;28;20396;-77
2023/01/06 07:05:14;;;;;;;3.53;2.10;;;9.00;99.90;;;8.06;100.00;97853.00;5069965;28;20411;-77
2023/01/06 07:07:40;;;;;;;2.37;1.83;;;9.00;99.90;;;8.08;100.00;97848.31;5070110;28;20408;-77
2023/01/06 07:10:07;;;;;;;3.17;2.20;;;9.10;99.90;;;8.07;100.00;97856.44;5070213;28;20392;-75
2023/01/06 07:12:33;;;;;;;3.03;2.10;;;9.10;99.90;;;8.20;100.00;97852.81;5069364;28;20462;-77
2023/01/06 07:14:59;;;;;;;2.00;1.80;;;9.10;99.90;;;8.14;100.00;97862.41;5069835;28;20427;-77
2023/01/06 07:17:26;;;;;;;2.03;1.88;;;9.10;99.90;;;8.13;100.00;97864.25;5069996;28;20404;-77
2023/01/06 07:19:54;;;;;;;2.70;2.00;;;9.10;99.90;;;8.07;100.00;97865.16;5070023;28;20456;-77
2023/01/06 07:22:20;;;;;;;3.00;2.13;;;9.00;99.90;;;8.21;100.00;97871.03;5071382;28;20912;-78
2023/01/06 07:24:46;;;;;;;2.70;1.83;;;9.20;99.90;;;8.18;100.00;97862.78;5089865;28;20394;-79
2023/01/06 07:27:11;;;;;;;3.67;2.00;;;9.20;99.90;;;8.11;100.00;97873.44;5088947;28;20505;-77
2023/01/06 07:29:37;;;;;;;2.20;2.00;;;9.10;99.90;;;8.09;100.00;97875.47;5090081;28;20402;-78
2023/01/06 07:32:04;;;;;;;2.10;1.90;;;9.10;99.90;;;8.07;100.00;97877.53;5089267;28;20504;-79
2023/01/06 07:34:30;;;;;;;2.00;1.90;;;9.00;99.90;;;8.08;100.00;97877.31;5089353;28;20394;-79
2023/01/06 07:36:58;;;;;;;2.55;1.98;;;9.10;99.90;;;8.10;100.00;97888.44;5071522;28;20485;-78
2023/01/06 07:39:23;;;;;;;4.78;1.90;;;9.10;99.90;;;8.16;100.00;97889.38;5090046;28;20842;-78
2023/01/06 07:41:49;;;;;;;3.03;2.13;;;9.10;99.90;;;8.14;100.00;97892.22;5089444;28;20528;-78
2023/01/06 07:44:15;;;;;;;2.20;1.95;;;9.10;99.90;;;8.15;100.00;97900.94;5089524;28;20842;-78
2023/01/06 07:46:41;;;;;;;1.83;1.73;;;9.10;99.90;;;8.16;100.00;97899.94;5089889;28;20483;-78
2023/01/06 07:49:07;;;;;;;3.07;1.93;;;9.10;99.90;;;8.17;100.00;97904.19;5089945;28;20409;-77
2023/01/06 07:51:33;;;;;;;2.30;2.10;;;9.10;99.90;;;8.19;100.00;97907.41;5089405;28;20516;-82
2023/01/06 07:54:00;;;;;;;3.63;2.20;;;9.20;99.90;;;8.23;100.00;97910.38;5089518;28;20405;-79
2023/01/06 07:56:26;;;;;;;2.75;2.38;;;9.20;99.90;;;8.15;100.00;97906.22;5074648;28;20412;-78
2023/01/06 07:58:55;;;;;;;4.78;2.63;;;9.10;99.90;;;8.13;100.00;97908.25;5063011;28;20903;-78
2023/01/06 08:01:21;;;;;;;2.95;2.38;;;9.10;99.90;;;8.12;100.00;97910.09;5068959;28;20410;-78
2023/01/06 08:03:47;;;;;;;2.83;2.38;;;9.10;99.90;;;8.14;100.00;97915.97;5069107;28;20403;-78
2023/01/06 08:06:13;;;;;;;2.65;2.40;;;9.10;99.90;;;8.15;100.00;97928.13;5062763;28;20465;-81
2023/01/06 08:08:40;;;;;;;2.90;2.40;;;9.10;99.90;;;8.15;100.00;97930.75;5058940;28;20492;-79
2023/01/06 08:11:11;;;;;;;3.10;2.33;;;9.20;99.90;;;8.15;100.00;97930.75;5058241;28;20423;-77
2023/01/06 08:13:37;;;;;;;3.72;2.58;;;9.10;99.90;;;8.16;100.00;97931.56;5060380;28;20425;-79
2023/01/06 08:16:04;;;;;;;2.50;2.20;;;9.10;99.90;;;8.18;100.00;97934.00;5063432;28;20878;-79
2023/01/06 08:18:31;;;;;;;2.95;2.47;;;9.10;99.90;;;8.18;100.00;97934.00;5063148;28;20454;-83
2023/01/06 08:20:59;;;;;;;3.67;2.65;;;9.20;99.90;;;8.17;100.00;97925.28;5056506;28;20408;-80
2023/01/06 08:23:25;;;;;;;4.55;2.65;;;9.20;99.90;;;8.16;100.00;97927.09;5061005;28;20402;-77
2023/01/06 08:25:51;;;;;;;2.88;2.50;;;9.10;99.90;;;8.17;100.00;97920.00;5063870;28;20490;-77
2023/01/06 08:28:18;;;;;;;5.95;2.90;;;9.20;99.90;;;8.15;100.00;97922.03;5062134;28;20867;-77
2023/01/06 08:30:44;;;;;;;4.22;2.67;;;9.20;99.90;;;8.16;100.00;97929.75;5062007;28;20908;-78
2023/01/06 08:33:10;;;;;;;2.85;2.28;;;9.10;99.90;;;8.18;100.00;97932.16;5062552;28;20482;-77
2023/01/06 08:35:36;;;;;;;3.30;2.70;;;9.20;99.90;;;8.19;100.00;97940.88;5061850;28;20492;-77
2023/01/06 08:38:02;;;;;;;2.92;2.60;;;9.20;99.90;;;8.19;100.00;97946.16;5062385;28;20939;-77
2023/01/06 08:40:28;;;;;;;3.38;2.75;;;9.20;99.90;;;8.20;100.00;97945.91;5063528;28;20468;-77
2023/01/06 08:42:54;;;;;;;3.58;2.42;;;9.20;99.90;;;8.21;100.00;97936.16;5060456;28;20406;-77
2023/01/06 08:45:21;;;;;;;5.07;2.92;;;9.20;99.90;;;8.24;100.00;97939.19;5061080;28;20417;-78
2023/01/06 08:47:47;;;;;;;3.72;2.83;;;9.20;99.90;;;8.23;100.00;97936.75;5057674;28;20400;-78
2023/01/06 08:50:12;;;;;;;4.68;2.83;;;9.20;99.90;;;8.21;100.00;97947.53;5056691;28;20411;-78
2023/01/06 08:52:38;;;;;;;3.08;2.60;;;9.20;99.90;;;8.34;100.00;97950.03;5065135;28;20526;-78
2023/01/06 08:55:05;;;;;;;2.40;2.20;;;9.30;99.90;;;8.25;100.00;97945.25;5065742;28;20403;-77
2023/01/06 08:57:32;;;;;;;2.20;1.63;;;9.20;99.90;;;8.20;100.00;97955.66;5064583;28;20420;-77
2023/01/06 08:59:58;;;;;;;2.17;1.70;;;9.20;99.90;;;8.15;100.00;97958.97;5061135;28;20407;-79
2023/01/06 09:02:26;;;;;;;2.92;1.52;;;9.10;99.90;;;8.06;100.00;97958.44;5063664;28;20511;-78
2023/01/06 09:04:52;;;;;;;2.10;1.60;;;9.00;99.90;;;8.01;100.00;97963.59;5068875;28;20407;-79
2023/01/06 09:07:18;;;;;;;2.85;1.60;;;9.00;99.90;;;8.04;100.00;97957.84;5063251;28;20411;-78
2023/01/06 09:09:44;;;;;;;1.60;1.50;;;9.00;99.90;;;8.07;100.00;97967.97;5060208;28;20436;-78
2023/01/06 09:12:10;;;;;;;1.90;1.63;;;9.10;99.90;;;8.13;100.00;97963.63;5059849;28;20458;-78
2023/01/06 09:14:36;;;;;;;1.77;1.35;;;9.10;99.90;;;8.17;100.00;97967.47;5062682;28;20407;-78
2023/01/06 09:17:01;;;;;;;2.92;1.40;;;9.10;99.90;;;8.19;100.00;97967.25;5043250;28;20504;-77
2023/01/06 09:19:29;;;;;;;2.85;1.60;;;9.20;99.90;;;8.22;100.00;97961.50;5044756;28;20400;-79
2023/01/06 09:21:54;;;;;;;2.47;1.38;;;9.20;99.90;;;8.25;100.00;97959.25;5065882;28;20414;-79
2023/01/06 09:24:20;;;;;;;1.35;1.20;;;9.20;99.90;;;8.30;100.00;97955.94;5069540;28;20421;-79
2023/01/06 09:26:46;;;;;;;1.48;1.15;;;9.30;99.90;;;8.34;100.00;97960.59;5071714;28;20465;-81
2023/01/06 09:29:12;;;;;;;1.30;1.20;;;9.30;99.90;;;8.35;100.00;97967.47;5072289;28;20408;-85
2023/01/06 09:31:38;;;;;;;2.13;1.45;;;9.30;99.90;;;8.41;100.00;97981.63;5072116;28;20438;-81
2023/01/06 09:34:04;;;;;;;1.88;1.20;;;9.40;99.90;;;8.50;100.00;97978.41;5070496;28;20399;-82
2023/01/06 09:36:33;;;;;;;2.28;1.20;;;9.40;99.90;;;8.59;100.00;97981.56;5068959;28;20399;-81
2023/01/06 09:38:59;;;;;;;1.50;1.10;;;9.50;99.90;;;8.71;100.00;97977.16;5071686;28;20426;-76
2023/01/06 09:41:56;;;;;;;1.50;1.10;;;9.70;99.90;;;8.82;100.00;97973.72;5071371;28;20396;-76
2023/01/06 09:44:29;;;;;;;1.50;1.20;;;9.70;99.90;;;8.88;100.00;97980.75;5058225;28;20478;-76
2023/01/06 09:46:57;;;;;;;1.60;1.10;;;9.80;99.90;;;8.90;100.00;97985.81;5068601;28;20483;-76
2023/01/06 09:49:30;;;;;;;1.20;1.10;;;9.80;99.90;;;8.97;100.00;97975.94;5071548;28;20408;-77
2023/01/06 09:52:01;;;;;;;2.17;1.25;;;9.90;99.90;;;9.03;100.00;97968.94;5067662;28;20471;-77
2023/01/06 09:54:32;;;;;;;4.15;1.17;;;9.90;99.90;;;9.13;100.00;97977.94;5071264;28;20460;-78
2023/01/06 09:57:15;;;;;;;1.40;1.10;;;10.00;99.90;;;9.25;100.00;97980.59;5071891;28;20399;-79
2023/01/06 09:59:48;;;;;;;0.93;0.93;;;10.10;99.90;;;9.50;100.00;97983.84;5071552;28;20469;-77
2023/01/06 10:02:21;;;;;;;1.10;1.00;;;10.30;99.90;;;9.98;100.00;97982.78;5071260;28;20403;-77
2023/01/06 10:04:47;;;;;;;1.40;1.00;;;10.70;99.90;;;10.30;100.00;97976.06;5073771;28;20399;-78
2023/01/06 10:07:25;;;;;;;1.58;0.90;;;11.00;99.90;;;10.19;100.00;97962.88;5072377;28;20407;-76
2023/01/06 10:10:08;;;;;;;0.90;0.90;;;11.10;99.90;;;10.18;100.00;97970.00;5073311;28;20493;-77
2023/01/06 10:12:51;;;;;;;0.70;0.70;;;11.00;99.90;;;10.18;100.00;97961.28;5073241;28;20467;-76
2023/01/06 10:15:23;;;;;;;0.82;0.77;;;11.10;99.90;;;10.34;100.00;97963.19;5071954;28;20400;-78
2023/01/06 10:18:14;;;;;;;0.75;0.73;;;11.20;99.90;;;10.27;100.00;97955.38;5067658;28;20412;-78
2023/01/06 10:20:53;;;;;;;0.80;0.80;;;11.20;99.90;;;10.21;100.00;97956.31;5066746;28;20426;-77
2023/01/06 10:23:43;;;;;;;0.80;0.80;;;11.10;99.90;;;10.00;100.00;97941.84;5068522;28;20487;-77
2023/01/06 10:26:13;;;;;;;1.50;0.70;;;10.90;99.90;;;9.81;100.00;97937.75;5065692;28;20750;-78
2023/01/06 10:28:42;;;;;;;1.60;0.70;;;10.70;99.90;;;9.65;100.00;97933.97;5061345;28;20431;-77
2023/01/06 10:31:14;;;;;;;0.80;0.80;;;10.50;99.90;;;9.70;100.00;97926.13;5060126;28;20427;-77
2023/01/06 10:33:45;;;;;;;0.82;0.82;;;10.60;99.90;;;9.69;100.00;97929.84;5058745;28;20409;-78
2023/01/06 10:36:14;;;;;;;0.75;0.75;;;10.60;99.90;;;9.77;100.00;97926.03;5059849;28;20481;-78
2023/01/06 10:38:45;;;;;;;0.80;0.80;;;10.60;99.90;;;9.78;100.00;97909.13;5060390;28;20403;-78